sensor_id;sensor_type;location;lat;lon;timestamp;P1;durP1;ratioP1;P2;durP2;ratioP2
7503;SDS011;3793;48.136;11.536;2023-02-08T00:01:56;17.10;;;8.53;;
7503;SDS011;3793;48.136;11.536;2023-02-08T00:04:22;17.83;;;8.80;;
7503;SDS011;3793;48.136;11.536;2023-02-08T00:06:49;12.77;;;8.10;;
7503;SDS011;3793;48.136;11.536;2023-02-08T00:09:15;14.53;;;8.20;;
7503;SDS011;3793;48.136;11.536;2023-02-08T00:11:42;19.20;;;9.00;;
7503;SDS011;3793;48.136;11.536;2023-02-08T00:14:08;10.87;;;8.00;;
7503;SDS011;3793;48.136;11.536;2023-02-08T00:16:36;18.03;;;8.23;;
7503;SDS011;3793;48.136;11.536;2023-02-08T00:19:03;16.27;;;8.57;;
7503;SDS011;3793;48.136;11.536;2023-02-08T00:21:29;20.73;;;9.00;;
7503;SDS011;3793;48.136;11.536;2023-02-08T00:23:56;14.90;;;8.10;;
7503;SDS011;3793;48.136;11.536;2023-02-08T00:26:22;15.23;;;8.10;;
7503;SDS011;3793;48.136;11.536;2023-02-08T00:28:49;15.93;;;8.47;;
7503;SDS011;3793;48.136;11.536;2023-02-08T00:31:15;16.23;;;9.30;;
7503;SDS011;3793;48.136;11.536;2023-02-08T00:33:43;16.77;;;8.87;;
7503;SDS011;3793;48.136;11.536;2023-02-08T00:36:10;17.47;;;8.50;;
7503;SDS011;3793;48.136;11.536;2023-02-08T00:38:36;15.90;;;8.73;;
7503;SDS011;3793;48.136;11.536;2023-02-08T00:41:03;14.17;;;9.00;;
7503;SDS011;3793;48.136;11.536;2023-02-08T00:43:30;15.03;;;8.27;;
7503;SDS011;3793;48.136;11.536;2023-02-08T00:45:57;15.83;;;8.43;;
7503;SDS011;3793;48.136;11.536;2023-02-08T00:48:24;13.30;;;7.93;;
7503;SDS011;3793;48.136;11.536;2023-02-08T00:50:59;14.13;;;8.17;;
7503;SDS011;3793;48.136;11.536;2023-02-08T00:53:26;19.43;;;8.50;;
7503;SDS011;3793;48.136;11.536;2023-02-08T00:55:52;15.67;;;8.03;;
7503;SDS011;3793;48.136;11.536;2023-02-08T00:58:19;14.93;;;8.53;;
7503;SDS011;3793;48.136;11.536;2023-02-08T01:00:46;14.67;;;9.07;;
7503;SDS011;3793;48.136;11.536;2023-02-08T01:03:12;14.33;;;8.67;;
7503;SDS011;3793;48.136;11.536;2023-02-08T01:05:39;13.83;;;7.87;;
7503;SDS011;3793;48.136;11.536;2023-02-08T01:08:07;16.07;;;8.53;;
7503;SDS011;3793;48.136;11.536;2023-02-08T01:10:33;18.23;;;8.23;;
7503;SDS011;3793;48.136;11.536;2023-02-08T01:13:00;18.77;;;9.23;;
7503;SDS011;3793;48.136;11.536;2023-02-08T01:15:27;18.23;;;9.17;;
7503;SDS011;3793;48.136;11.536;2023-02-08T01:17:53;16.57;;;9.00;;
7503;SDS011;3793;48.136;11.536;2023-02-08T01:20:20;14.10;;;8.60;;
7503;SDS011;3793;48.136;11.536;2023-02-08T01:22:46;16.17;;;8.80;;
7503;SDS011;3793;48.136;11.536;2023-02-08T01:25:15;17.87;;;9.40;;
7503;SDS011;3793;48.136;11.536;2023-02-08T01:27:41;16.30;;;8.93;;
7503;SDS011;3793;48.136;11.536;2023-02-08T01:30:08;17.00;;;9.93;;
7503;SDS011;3793;48.136;11.536;2023-02-08T01:32:35;15.30;;;9.33;;
7503;SDS011;3793;48.136;11.536;2023-02-08T01:35:01;18.23;;;9.33;;
7503;SDS011;3793;48.136;11.536;2023-02-08T01:37:28;17.47;;;9.10;;
7503;SDS011;3793;48.136;11.536;2023-02-08T01:39:55;16.63;;;9.57;;
7503;SDS011;3793;48.136;11.536;2023-02-08T01:42:23;16.33;;;8.83;;
7503;SDS011;3793;48.136;11.536;2023-02-08T01:45:17;15.97;;;8.80;;
7503;SDS011;3793;48.136;11.536;2023-02-08T01:47:47;16.77;;;9.30;;
7503;SDS011;3793;48.136;11.536;2023-02-08T01:50:16;17.37;;;9.80;;
7503;SDS011;3793;48.136;11.536;2023-02-08T01:52:43;15.90;;;9.60;;
7503;SDS011;3793;48.136;11.536;2023-02-08T01:55:11;13.70;;;8.87;;
7503;SDS011;3793;48.136;11.536;2023-02-08T01:57:40;16.50;;;8.77;;
7503;SDS011;3793;48.136;11.536;2023-02-08T02:00:11;16.80;;;9.30;;
7503;SDS011;3793;48.136;11.536;2023-02-08T02:02:38;17.47;;;10.23;;
7503;SDS011;3793;48.136;11.536;2023-02-08T02:05:06;18.00;;;9.53;;
7503;SDS011;3793;48.136;11.536;2023-02-08T02:07:32;14.90;;;9.13;;
7503;SDS011;3793;48.136;11.536;2023-02-08T02:10:02;17.27;;;9.83;;
7503;SDS011;3793;48.136;11.536;2023-02-08T02:12:30;16.60;;;9.40;;
7503;SDS011;3793;48.136;11.536;2023-02-08T02:14:59;15.70;;;9.50;;
7503;SDS011;3793;48.136;11.536;2023-02-08T02:17:26;16.53;;;9.47;;
7503;SDS011;3793;48.136;11.536;2023-02-08T02:19:54;15.97;;;10.00;;
7503;SDS011;3793;48.136;11.536;2023-02-08T02:25:26;16.13;;;9.37;;
7503;SDS011;3793;48.136;11.536;2023-02-08T02:28:03;17.93;;;9.50;;
7503;SDS011;3793;48.136;11.536;2023-02-08T02:30:49;18.23;;;9.63;;
7503;SDS011;3793;48.136;11.536;2023-02-08T02:33:28;14.77;;;9.33;;
7503;SDS011;3793;48.136;11.536;2023-02-08T02:35:59;16.33;;;9.43;;
7503;SDS011;3793;48.136;11.536;2023-02-08T02:38:28;16.43;;;9.67;;
7503;SDS011;3793;48.136;11.536;2023-02-08T02:41:01;17.67;;;9.67;;
7503;SDS011;3793;48.136;11.536;2023-02-08T02:43:32;15.63;;;9.53;;
7503;SDS011;3793;48.136;11.536;2023-02-08T02:46:08;15.17;;;9.23;;
7503;SDS011;3793;48.136;11.536;2023-02-08T02:48:39;16.40;;;9.40;;
7503;SDS011;3793;48.136;11.536;2023-02-08T02:51:07;16.33;;;9.87;;
7503;SDS011;3793;48.136;11.536;2023-02-08T02:53:36;15.47;;;9.47;;
7503;SDS011;3793;48.136;11.536;2023-02-08T02:56:08;16.17;;;9.73;;
7503;SDS011;3793;48.136;11.536;2023-02-08T02:58:37;20.57;;;9.57;;
7503;SDS011;3793;48.136;11.536;2023-02-08T03:01:04;19.63;;;10.40;;
7503;SDS011;3793;48.136;11.536;2023-02-08T03:03:32;18.23;;;9.70;;
7503;SDS011;3793;48.136;11.536;2023-02-08T03:06:01;19.67;;;9.87;;
7503;SDS011;3793;48.136;11.536;2023-02-08T03:08:36;20.33;;;10.90;;
7503;SDS011;3793;48.136;11.536;2023-02-08T03:11:09;20.03;;;10.23;;
7503;SDS011;3793;48.136;11.536;2023-02-08T03:13:43;18.73;;;10.30;;
7503;SDS011;3793;48.136;11.536;2023-02-08T03:16:15;17.33;;;9.70;;
7503;SDS011;3793;48.136;11.536;2023-02-08T03:18:44;16.73;;;10.10;;
7503;SDS011;3793;48.136;11.536;2023-02-08T03:21:16;19.33;;;9.90;;
7503;SDS011;3793;48.136;11.536;2023-02-08T03:23:45;18.67;;;9.93;;
7503;SDS011;3793;48.136;11.536;2023-02-08T03:26:15;18.73;;;10.17;;
7503;SDS011;3793;48.136;11.536;2023-02-08T03:28:46;17.70;;;10.00;;
7503;SDS011;3793;48.136;11.536;2023-02-08T03:31:16;18.70;;;10.23;;
7503;SDS011;3793;48.136;11.536;2023-02-08T03:33:45;24.73;;;10.47;;
7503;SDS011;3793;48.136;11.536;2023-02-08T03:36:18;18.73;;;9.10;;
7503;SDS011;3793;48.136;11.536;2023-02-08T03:38:47;18.47;;;9.60;;
7503;SDS011;3793;48.136;11.536;2023-02-08T03:41:14;21.07;;;11.00;;
7503;SDS011;3793;48.136;11.536;2023-02-08T03:43:43;19.87;;;10.77;;
7503;SDS011;3793;48.136;11.536;2023-02-08T03:46:12;17.37;;;10.47;;
7503;SDS011;3793;48.136;11.536;2023-02-08T03:48:40;19.93;;;9.93;;
7503;SDS011;3793;48.136;11.536;2023-02-08T03:51:09;19.43;;;9.73;;
7503;SDS011;3793;48.136;11.536;2023-02-08T03:53:37;18.10;;;9.53;;
7503;SDS011;3793;48.136;11.536;2023-02-08T03:56:08;18.20;;;10.20;;
7503;SDS011;3793;48.136;11.536;2023-02-08T03:58:37;20.53;;;11.07;;
7503;SDS011;3793;48.136;11.536;2023-02-08T04:01:07;16.93;;;9.77;;
7503;SDS011;3793;48.136;11.536;2023-02-08T04:03:36;20.47;;;10.73;;
7503;SDS011;3793;48.136;11.536;2023-02-08T04:06:03;19.47;;;10.23;;
7503;SDS011;3793;48.136;11.536;2023-02-08T04:08:30;18.60;;;10.23;;
7503;SDS011;3793;48.136;11.536;2023-02-08T04:10:58;19.03;;;10.50;;
7503;SDS011;3793;48.136;11.536;2023-02-08T04:13:25;19.07;;;10.57;;
7503;SDS011;3793;48.136;11.536;2023-02-08T04:15:51;21.33;;;10.60;;
7503;SDS011;3793;48.136;11.536;2023-02-08T04:18:18;19.73;;;10.40;;
7503;SDS011;3793;48.136;11.536;2023-02-08T04:20:44;18.17;;;10.53;;
7503;SDS011;3793;48.136;11.536;2023-02-08T04:23:11;18.17;;;10.20;;
7503;SDS011;3793;48.136;11.536;2023-02-08T04:25:37;20.13;;;11.30;;
7503;SDS011;3793;48.136;11.536;2023-02-08T04:28:06;19.07;;;10.50;;
7503;SDS011;3793;48.136;11.536;2023-02-08T04:30:32;19.63;;;10.37;;
7503;SDS011;3793;48.136;11.536;2023-02-08T04:32:59;19.70;;;10.53;;
7503;SDS011;3793;48.136;11.536;2023-02-08T04:35:26;22.00;;;10.40;;
7503;SDS011;3793;48.136;11.536;2023-02-08T04:37:52;21.77;;;11.13;;
7503;SDS011;3793;48.136;11.536;2023-02-08T04:40:19;19.17;;;10.67;;
7503;SDS011;3793;48.136;11.536;2023-02-08T04:42:45;20.60;;;10.73;;
7503;SDS011;3793;48.136;11.536;2023-02-08T04:45:13;25.00;;;10.93;;
7503;SDS011;3793;48.136;11.536;2023-02-08T04:47:40;22.40;;;11.90;;
7503;SDS011;3793;48.136;11.536;2023-02-08T04:50:06;16.47;;;10.43;;
7503;SDS011;3793;48.136;11.536;2023-02-08T04:52:33;19.20;;;10.70;;
7503;SDS011;3793;48.136;11.536;2023-02-08T04:55:00;19.57;;;11.00;;
7503;SDS011;3793;48.136;11.536;2023-02-08T04:57:26;23.73;;;11.20;;
7503;SDS011;3793;48.136;11.536;2023-02-08T04:59:53;18.33;;;10.97;;
7503;SDS011;3793;48.136;11.536;2023-02-08T05:02:21;22.33;;;11.43;;
7503;SDS011;3793;48.136;11.536;2023-02-08T05:04:47;23.23;;;11.97;;
7503;SDS011;3793;48.136;11.536;2023-02-08T05:07:14;19.40;;;10.83;;
7503;SDS011;3793;48.136;11.536;2023-02-08T05:09:40;22.50;;;10.67;;
7503;SDS011;3793;48.136;11.536;2023-02-08T05:12:07;22.87;;;11.20;;
7503;SDS011;3793;48.136;11.536;2023-02-08T05:14:34;21.67;;;11.27;;
7503;SDS011;3793;48.136;11.536;2023-02-08T05:17:00;23.97;;;11.83;;
7503;SDS011;3793;48.136;11.536;2023-02-08T05:19:28;22.73;;;11.53;;
7503;SDS011;3793;48.136;11.536;2023-02-08T05:21:55;22.70;;;10.97;;
7503;SDS011;3793;48.136;11.536;2023-02-08T05:24:21;19.97;;;11.20;;
7503;SDS011;3793;48.136;11.536;2023-02-08T05:26:48;23.57;;;11.67;;
7503;SDS011;3793;48.136;11.536;2023-02-08T05:29:14;23.27;;;11.67;;
7503;SDS011;3793;48.136;11.536;2023-02-08T05:31:41;22.40;;;11.47;;
7503;SDS011;3793;48.136;11.536;2023-02-08T05:34:07;24.23;;;12.67;;
7503;SDS011;3793;48.136;11.536;2023-02-08T05:36:35;23.20;;;11.87;;
7503;SDS011;3793;48.136;11.536;2023-02-08T05:39:02;21.13;;;12.00;;
7503;SDS011;3793;48.136;11.536;2023-02-08T05:41:28;20.33;;;10.80;;
7503;SDS011;3793;48.136;11.536;2023-02-08T05:43:55;21.53;;;11.27;;
7503;SDS011;3793;48.136;11.536;2023-02-08T05:46:22;20.57;;;11.97;;
7503;SDS011;3793;48.136;11.536;2023-02-08T05:48:48;22.50;;;11.50;;
7503;SDS011;3793;48.136;11.536;2023-02-08T05:51:15;20.10;;;10.90;;
7503;SDS011;3793;48.136;11.536;2023-02-08T05:53:43;19.90;;;12.23;;
7503;SDS011;3793;48.136;11.536;2023-02-08T05:56:09;21.90;;;11.53;;
7503;SDS011;3793;48.136;11.536;2023-02-08T05:58:36;23.37;;;12.37;;
7503;SDS011;3793;48.136;11.536;2023-02-08T06:01:06;25.40;;;12.23;;
7503;SDS011;3793;48.136;11.536;2023-02-08T06:03:33;21.20;;;12.00;;
7503;SDS011;3793;48.136;11.536;2023-02-08T06:05:59;22.67;;;12.33;;
7503;SDS011;3793;48.136;11.536;2023-02-08T06:08:26;23.40;;;12.73;;
7503;SDS011;3793;48.136;11.536;2023-02-08T06:10:54;21.20;;;11.53;;
7503;SDS011;3793;48.136;11.536;2023-02-08T06:13:20;22.27;;;12.07;;
7503;SDS011;3793;48.136;11.536;2023-02-08T06:15:47;20.60;;;10.93;;
7503;SDS011;3793;48.136;11.536;2023-02-08T06:18:13;19.93;;;11.80;;
7503;SDS011;3793;48.136;11.536;2023-02-08T06:20:40;24.77;;;12.80;;
7503;SDS011;3793;48.136;11.536;2023-02-08T06:23:06;19.57;;;11.50;;
7503;SDS011;3793;48.136;11.536;2023-02-08T06:25:33;27.50;;;12.83;;
7503;SDS011;3793;48.136;11.536;2023-02-08T06:28:01;21.73;;;11.53;;
7503;SDS011;3793;48.136;11.536;2023-02-08T06:30:28;22.67;;;12.17;;
7503;SDS011;3793;48.136;11.536;2023-02-08T06:32:55;26.87;;;12.93;;
7503;SDS011;3793;48.136;11.536;2023-02-08T06:35:21;19.73;;;11.93;;
7503;SDS011;3793;48.136;11.536;2023-02-08T06:37:48;22.07;;;12.57;;
7503;SDS011;3793;48.136;11.536;2023-02-08T06:40:15;24.30;;;12.73;;
7503;SDS011;3793;48.136;11.536;2023-02-08T06:42:41;23.60;;;12.67;;
7503;SDS011;3793;48.136;11.536;2023-02-08T06:45:09;25.80;;;12.60;;
7503;SDS011;3793;48.136;11.536;2023-02-08T06:48:10;22.33;;;12.23;;
7503;SDS011;3793;48.136;11.536;2023-02-08T06:50:34;22.87;;;12.10;;
7503;SDS011;3793;48.136;11.536;2023-02-08T06:53:01;22.93;;;12.30;;
7503;SDS011;3793;48.136;11.536;2023-02-08T06:55:28;26.67;;;13.70;;
7503;SDS011;3793;48.136;11.536;2023-02-08T06:57:54;24.10;;;12.77;;
7503;SDS011;3793;48.136;11.536;2023-02-08T07:00:23;24.03;;;12.70;;
7503;SDS011;3793;48.136;11.536;2023-02-08T07:02:49;26.37;;;13.27;;
7503;SDS011;3793;48.136;11.536;2023-02-08T07:05:16;27.83;;;13.63;;
7503;SDS011;3793;48.136;11.536;2023-02-08T07:07:43;27.00;;;13.23;;
7503;SDS011;3793;48.136;11.536;2023-02-08T07:10:09;29.60;;;12.47;;
7503;SDS011;3793;48.136;11.536;2023-02-08T07:12:36;25.23;;;12.87;;
7503;SDS011;3793;48.136;11.536;2023-02-08T07:15:03;20.73;;;11.30;;
7503;SDS011;3793;48.136;11.536;2023-02-08T07:17:31;19.53;;;12.80;;
7503;SDS011;3793;48.136;11.536;2023-02-08T07:19:57;22.30;;;12.53;;
7503;SDS011;3793;48.136;11.536;2023-02-08T07:22:24;21.97;;;13.17;;
7503;SDS011;3793;48.136;11.536;2023-02-08T07:24:50;25.37;;;13.83;;
7503;SDS011;3793;48.136;11.536;2023-02-08T07:27:17;25.37;;;15.30;;
7503;SDS011;3793;48.136;11.536;2023-02-08T07:29:43;24.57;;;12.60;;
7503;SDS011;3793;48.136;11.536;2023-02-08T07:32:10;21.90;;;12.10;;
7503;SDS011;3793;48.136;11.536;2023-02-08T07:34:39;20.97;;;12.93;;
7503;SDS011;3793;48.136;11.536;2023-02-08T07:37:05;22.00;;;12.27;;
7503;SDS011;3793;48.136;11.536;2023-02-08T07:39:32;23.10;;;12.93;;
7503;SDS011;3793;48.136;11.536;2023-02-08T07:41:58;25.00;;;12.93;;
7503;SDS011;3793;48.136;11.536;2023-02-08T07:44:25;24.77;;;13.30;;
7503;SDS011;3793;48.136;11.536;2023-02-08T07:46:52;24.87;;;13.27;;
7503;SDS011;3793;48.136;11.536;2023-02-08T07:49:18;27.07;;;12.20;;
7503;SDS011;3793;48.136;11.536;2023-02-08T07:51:46;24.83;;;12.97;;
7503;SDS011;3793;48.136;11.536;2023-02-08T07:54:13;30.17;;;12.90;;
7503;SDS011;3793;48.136;11.536;2023-02-08T07:56:39;23.17;;;13.57;;
7503;SDS011;3793;48.136;11.536;2023-02-08T07:59:06;24.13;;;12.80;;
7503;SDS011;3793;48.136;11.536;2023-02-08T08:01:33;21.20;;;13.77;;
7503;SDS011;3793;48.136;11.536;2023-02-08T08:03:59;24.73;;;12.60;;
7503;SDS011;3793;48.136;11.536;2023-02-08T08:06:26;24.03;;;13.20;;
7503;SDS011;3793;48.136;11.536;2023-02-08T08:08:54;24.03;;;14.37;;
7503;SDS011;3793;48.136;11.536;2023-02-08T08:11:20;22.10;;;12.97;;
7503;SDS011;3793;48.136;11.536;2023-02-08T08:13:47;22.60;;;11.50;;
7503;SDS011;3793;48.136;11.536;2023-02-08T08:16:14;23.53;;;13.23;;
7503;SDS011;3793;48.136;11.536;2023-02-08T08:18:40;21.07;;;11.57;;
7503;SDS011;3793;48.136;11.536;2023-02-08T08:21:07;21.47;;;12.03;;
7503;SDS011;3793;48.136;11.536;2023-02-08T08:23:34;21.20;;;12.87;;
7503;SDS011;3793;48.136;11.536;2023-02-08T08:26:06;24.57;;;13.17;;
7503;SDS011;3793;48.136;11.536;2023-02-08T08:28:33;22.97;;;12.83;;
7503;SDS011;3793;48.136;11.536;2023-02-08T08:31:00;21.40;;;11.53;;
7503;SDS011;3793;48.136;11.536;2023-02-08T08:33:26;25.40;;;13.00;;
7503;SDS011;3793;48.136;11.536;2023-02-08T08:35:53;23.93;;;11.97;;
7503;SDS011;3793;48.136;11.536;2023-02-08T08:38:19;21.57;;;12.27;;
7503;SDS011;3793;48.136;11.536;2023-02-08T08:40:46;22.57;;;12.27;;
7503;SDS011;3793;48.136;11.536;2023-02-08T08:43:14;23.40;;;12.53;;
7503;SDS011;3793;48.136;11.536;2023-02-08T08:45:41;22.07;;;12.17;;
7503;SDS011;3793;48.136;11.536;2023-02-08T08:48:07;24.87;;;12.77;;
7503;SDS011;3793;48.136;11.536;2023-02-08T08:50:35;22.23;;;12.70;;
7503;SDS011;3793;48.136;11.536;2023-02-08T08:53:02;24.23;;;13.33;;
7503;SDS011;3793;48.136;11.536;2023-02-08T08:55:29;21.77;;;12.47;;
7503;SDS011;3793;48.136;11.536;2023-02-08T08:57:56;19.93;;;11.80;;
7503;SDS011;3793;48.136;11.536;2023-02-08T09:00:24;20.57;;;11.97;;
7503;SDS011;3793;48.136;11.536;2023-02-08T09:02:51;23.20;;;11.50;;
7503;SDS011;3793;48.136;11.536;2023-02-08T09:05:17;24.47;;;13.10;;
7503;SDS011;3793;48.136;11.536;2023-02-08T09:07:44;17.97;;;11.53;;
7503;SDS011;3793;48.136;11.536;2023-02-08T09:10:11;26.23;;;12.33;;
7503;SDS011;3793;48.136;11.536;2023-02-08T09:12:37;20.97;;;11.80;;
7503;SDS011;3793;48.136;11.536;2023-02-08T09:15:04;20.03;;;12.13;;
7503;SDS011;3793;48.136;11.536;2023-02-08T09:17:32;20.73;;;11.97;;
7503;SDS011;3793;48.136;11.536;2023-02-08T09:19:59;21.10;;;12.33;;
7503;SDS011;3793;48.136;11.536;2023-02-08T09:22:25;19.47;;;10.73;;
7503;SDS011;3793;48.136;11.536;2023-02-08T09:24:52;22.13;;;11.67;;
7503;SDS011;3793;48.136;11.536;2023-02-08T09:27:19;25.37;;;11.90;;
7503;SDS011;3793;48.136;11.536;2023-02-08T09:29:45;23.03;;;12.13;;
7503;SDS011;3793;48.136;11.536;2023-02-08T09:32:12;20.60;;;12.07;;
7503;SDS011;3793;48.136;11.536;2023-02-08T09:34:40;20.63;;;12.20;;
7503;SDS011;3793;48.136;11.536;2023-02-08T09:37:06;20.50;;;11.73;;
7503;SDS011;3793;48.136;11.536;2023-02-08T09:39:33;21.63;;;11.87;;
7503;SDS011;3793;48.136;11.536;2023-02-08T09:42:21;24.77;;;13.70;;
7503;SDS011;3793;48.136;11.536;2023-02-08T09:44:54;21.57;;;12.43;;
7503;SDS011;3793;48.136;11.536;2023-02-08T09:47:27;25.73;;;13.10;;
7503;SDS011;3793;48.136;11.536;2023-02-08T09:49:58;22.10;;;13.20;;
7503;SDS011;3793;48.136;11.536;2023-02-08T09:52:29;24.80;;;13.47;;
7503;SDS011;3793;48.136;11.536;2023-02-08T09:54:58;24.67;;;12.57;;
7503;SDS011;3793;48.136;11.536;2023-02-08T09:57:25;19.30;;;13.23;;
7503;SDS011;3793;48.136;11.536;2023-02-08T09:59:54;25.70;;;13.67;;
7503;SDS011;3793;48.136;11.536;2023-02-08T10:02:23;27.30;;;13.40;;
7503;SDS011;3793;48.136;11.536;2023-02-08T10:04:54;20.40;;;12.83;;
7503;SDS011;3793;48.136;11.536;2023-02-08T10:07:24;22.53;;;12.90;;
7503;SDS011;3793;48.136;11.536;2023-02-08T10:09:50;21.70;;;12.67;;
7503;SDS011;3793;48.136;11.536;2023-02-08T10:12:19;23.53;;;13.27;;
7503;SDS011;3793;48.136;11.536;2023-02-08T10:14:54;22.10;;;13.30;;
7503;SDS011;3793;48.136;11.536;2023-02-08T10:17:29;21.77;;;13.67;;
7503;SDS011;3793;48.136;11.536;2023-02-08T10:20:02;20.50;;;11.37;;
7503;SDS011;3793;48.136;11.536;2023-02-08T10:22:33;20.57;;;12.57;;
7503;SDS011;3793;48.136;11.536;2023-02-08T10:25:08;23.40;;;13.27;;
7503;SDS011;3793;48.136;11.536;2023-02-08T10:27:39;21.83;;;13.27;;
7503;SDS011;3793;48.136;11.536;2023-02-08T10:30:14;23.33;;;12.40;;
7503;SDS011;3793;48.136;11.536;2023-02-08T10:32:44;20.37;;;12.73;;
7503;SDS011;3793;48.136;11.536;2023-02-08T10:35:13;27.50;;;13.80;;
7503;SDS011;3793;48.136;11.536;2023-02-08T10:37:42;20.87;;;13.03;;
7503;SDS011;3793;48.136;11.536;2023-02-08T10:40:14;21.13;;;12.73;;
7503;SDS011;3793;48.136;11.536;2023-02-08T10:42:41;24.80;;;13.10;;
7503;SDS011;3793;48.136;11.536;2023-02-08T10:45:14;24.67;;;13.13;;
7503;SDS011;3793;48.136;11.536;2023-02-08T10:47:42;23.80;;;12.87;;
7503;SDS011;3793;48.136;11.536;2023-02-08T10:50:11;20.97;;;13.00;;
7503;SDS011;3793;48.136;11.536;2023-02-08T10:52:42;21.93;;;13.00;;
7503;SDS011;3793;48.136;11.536;2023-02-08T10:55:13;22.57;;;13.03;;
7503;SDS011;3793;48.136;11.536;2023-02-08T10:57:40;21.13;;;13.03;;
7503;SDS011;3793;48.136;11.536;2023-02-08T11:00:09;20.37;;;12.50;;
7503;SDS011;3793;48.136;11.536;2023-02-08T11:02:38;26.93;;;13.40;;
7503;SDS011;3793;48.136;11.536;2023-02-08T11:05:06;24.97;;;13.60;;
7503;SDS011;3793;48.136;11.536;2023-02-08T11:07:33;22.13;;;12.47;;
7503;SDS011;3793;48.136;11.536;2023-02-08T11:12:43;21.83;;;13.83;;
7503;SDS011;3793;48.136;11.536;2023-02-08T11:15:22;23.63;;;13.17;;
7503;SDS011;3793;48.136;11.536;2023-02-08T11:17:53;20.50;;;13.50;;
7503;SDS011;3793;48.136;11.536;2023-02-08T11:20:21;22.03;;;12.23;;
7503;SDS011;3793;48.136;11.536;2023-02-08T11:22:50;22.57;;;13.60;;
7503;SDS011;3793;48.136;11.536;2023-02-08T11:25:29;26.93;;;14.07;;
7503;SDS011;3793;48.136;11.536;2023-02-08T11:27:57;21.23;;;13.27;;
7503;SDS011;3793;48.136;11.536;2023-02-08T11:35:52;23.87;;;13.97;;
7503;SDS011;3793;48.136;11.536;2023-02-08T11:38:20;22.93;;;13.03;;
7503;SDS011;3793;48.136;11.536;2023-02-08T11:40:51;23.17;;;13.47;;
7503;SDS011;3793;48.136;11.536;2023-02-08T11:43:21;23.47;;;13.73;;
7503;SDS011;3793;48.136;11.536;2023-02-08T11:45:48;25.17;;;13.93;;
7503;SDS011;3793;48.136;11.536;2023-02-08T11:48:20;22.40;;;13.37;;
7503;SDS011;3793;48.136;11.536;2023-02-08T11:50:51;23.30;;;14.80;;
7503;SDS011;3793;48.136;11.536;2023-02-08T11:53:19;22.97;;;15.00;;
7503;SDS011;3793;48.136;11.536;2023-02-08T11:56:00;27.30;;;14.93;;
7503;SDS011;3793;48.136;11.536;2023-02-08T11:58:28;28.57;;;15.50;;
7503;SDS011;3793;48.136;11.536;2023-02-08T12:00:59;22.10;;;13.57;;
7503;SDS011;3793;48.136;11.536;2023-02-08T12:03:26;31.43;;;15.70;;
7503;SDS011;3793;48.136;11.536;2023-02-08T12:05:58;24.07;;;15.33;;
7503;SDS011;3793;48.136;11.536;2023-02-08T12:08:30;22.27;;;14.33;;
7503;SDS011;3793;48.136;11.536;2023-02-08T12:11:07;25.27;;;14.67;;
7503;SDS011;3793;48.136;11.536;2023-02-08T12:13:57;25.53;;;14.97;;
7503;SDS011;3793;48.136;11.536;2023-02-08T12:16:37;24.83;;;14.57;;
7503;SDS011;3793;48.136;11.536;2023-02-08T12:19:18;27.17;;;15.33;;
7503;SDS011;3793;48.136;11.536;2023-02-08T12:21:53;23.23;;;15.50;;
7503;SDS011;3793;48.136;11.536;2023-02-08T12:24:23;23.77;;;14.03;;
7503;SDS011;3793;48.136;11.536;2023-02-08T12:27:00;27.63;;;16.00;;
7503;SDS011;3793;48.136;11.536;2023-02-08T12:29:35;23.97;;;15.67;;
7503;SDS011;3793;48.136;11.536;2023-02-08T12:32:05;22.27;;;13.90;;
7503;SDS011;3793;48.136;11.536;2023-02-08T12:34:47;25.13;;;15.67;;
7503;SDS011;3793;48.136;11.536;2023-02-08T12:37:19;24.50;;;16.13;;
7503;SDS011;3793;48.136;11.536;2023-02-08T12:40:13;29.40;;;16.00;;
7503;SDS011;3793;48.136;11.536;2023-02-08T12:43:01;23.17;;;14.90;;
7503;SDS011;3793;48.136;11.536;2023-02-08T12:45:52;26.77;;;15.50;;
7503;SDS011;3793;48.136;11.536;2023-02-08T12:48:27;26.47;;;15.23;;
7503;SDS011;3793;48.136;11.536;2023-02-08T12:50:59;25.97;;;16.20;;
7503;SDS011;3793;48.136;11.536;2023-02-08T12:53:30;24.77;;;15.90;;
7503;SDS011;3793;48.136;11.536;2023-02-08T12:55:57;23.20;;;15.10;;
7503;SDS011;3793;48.136;11.536;2023-02-08T12:58:26;25.97;;;15.63;;
7503;SDS011;3793;48.136;11.536;2023-02-08T13:00:55;25.17;;;15.60;;
7503;SDS011;3793;48.136;11.536;2023-02-08T13:03:27;25.77;;;15.63;;
7503;SDS011;3793;48.136;11.536;2023-02-08T13:05:56;24.27;;;15.00;;
7503;SDS011;3793;48.136;11.536;2023-02-08T13:08:25;24.60;;;16.50;;
7503;SDS011;3793;48.136;11.536;2023-02-08T13:10:54;25.20;;;16.00;;
7503;SDS011;3793;48.136;11.536;2023-02-08T13:13:24;27.43;;;16.60;;
7503;SDS011;3793;48.136;11.536;2023-02-08T13:15:52;24.43;;;16.07;;
7503;SDS011;3793;48.136;11.536;2023-02-08T13:18:22;25.63;;;15.83;;
7503;SDS011;3793;48.136;11.536;2023-02-08T13:20:50;28.77;;;15.57;;
7503;SDS011;3793;48.136;11.536;2023-02-08T13:23:19;26.93;;;15.20;;
7503;SDS011;3793;48.136;11.536;2023-02-08T13:25:48;27.90;;;16.10;;
7503;SDS011;3793;48.136;11.536;2023-02-08T13:28:17;24.60;;;15.17;;
7503;SDS011;3793;48.136;11.536;2023-02-08T13:30:44;24.00;;;15.10;;
7503;SDS011;3793;48.136;11.536;2023-02-08T13:33:13;23.93;;;14.33;;
7503;SDS011;3793;48.136;11.536;2023-02-08T13:35:42;25.40;;;14.13;;
7503;SDS011;3793;48.136;11.536;2023-02-08T13:38:17;22.63;;;13.43;;
7503;SDS011;3793;48.136;11.536;2023-02-08T13:40:43;23.50;;;14.83;;
7503;SDS011;3793;48.136;11.536;2023-02-08T13:43:15;22.83;;;14.33;;
7503;SDS011;3793;48.136;11.536;2023-02-08T13:45:45;21.37;;;13.90;;
7503;SDS011;3793;48.136;11.536;2023-02-08T13:48:16;20.97;;;13.90;;
7503;SDS011;3793;48.136;11.536;2023-02-08T13:50:45;19.97;;;13.47;;
7503;SDS011;3793;48.136;11.536;2023-02-08T13:53:12;22.27;;;14.37;;
7503;SDS011;3793;48.136;11.536;2023-02-08T13:58:27;26.03;;;13.60;;
7503;SDS011;3793;48.136;11.536;2023-02-08T14:01:01;24.93;;;13.67;;
7503;SDS011;3793;48.136;11.536;2023-02-08T14:03:31;20.10;;;12.57;;
7503;SDS011;3793;48.136;11.536;2023-02-08T14:06:00;22.40;;;13.67;;
7503;SDS011;3793;48.136;11.536;2023-02-08T14:08:29;24.83;;;13.17;;
7503;SDS011;3793;48.136;11.536;2023-02-08T14:11:02;24.27;;;13.07;;
7503;SDS011;3793;48.136;11.536;2023-02-08T14:13:30;24.23;;;13.23;;
7503;SDS011;3793;48.136;11.536;2023-02-08T14:18:49;24.40;;;13.07;;
7503;SDS011;3793;48.136;11.536;2023-02-08T14:21:21;20.80;;;13.00;;
7503;SDS011;3793;48.136;11.536;2023-02-08T14:23:57;21.97;;;13.30;;
7503;SDS011;3793;48.136;11.536;2023-02-08T14:26:24;18.97;;;11.90;;
7503;SDS011;3793;48.136;11.536;2023-02-08T14:28:52;22.73;;;14.13;;
7503;SDS011;3793;48.136;11.536;2023-02-08T14:31:19;23.23;;;14.10;;
7503;SDS011;3793;48.136;11.536;2023-02-08T14:33:49;24.87;;;13.70;;
7503;SDS011;3793;48.136;11.536;2023-02-08T14:36:24;25.67;;;13.70;;
7503;SDS011;3793;48.136;11.536;2023-02-08T14:41:40;21.83;;;12.50;;
7503;SDS011;3793;48.136;11.536;2023-02-08T14:46:52;20.70;;;11.90;;
7503;SDS011;3793;48.136;11.536;2023-02-08T14:49:19;21.87;;;12.77;;
7503;SDS011;3793;48.136;11.536;2023-02-08T14:51:48;19.43;;;11.53;;
7503;SDS011;3793;48.136;11.536;2023-02-08T14:54:16;20.80;;;11.77;;
7503;SDS011;3793;48.136;11.536;2023-02-08T14:56:46;18.97;;;11.17;;
7503;SDS011;3793;48.136;11.536;2023-02-08T14:59:15;19.53;;;11.97;;
7503;SDS011;3793;48.136;11.536;2023-02-08T15:01:44;19.90;;;10.63;;
7503;SDS011;3793;48.136;11.536;2023-02-08T15:04:12;18.47;;;10.40;;
7503;SDS011;3793;48.136;11.536;2023-02-08T15:06:55;19.23;;;11.50;;
7503;SDS011;3793;48.136;11.536;2023-02-08T15:09:27;20.43;;;11.13;;
7503;SDS011;3793;48.136;11.536;2023-02-08T15:11:58;16.90;;;11.00;;